sensor_id;sensor_type;location;lat;lon;timestamp;P1;durP1;ratioP1;P2;durP2;ratioP2
3095;SDS011;1558;42.700;23.360;2023-06-14T00:00:03;1.00;;;1.00;;
3095;SDS011;1558;42.700;23.360;2023-06-14T00:02:34;0.93;;;0.93;;
3095;SDS011;1558;42.700;23.360;2023-06-14T00:05:02;1.57;;;1.40;;
3095;SDS011;1558;42.700;23.360;2023-06-14T00:07:36;1.53;;;0.97;;
3095;SDS011;1558;42.700;23.360;2023-06-14T00:10:09;1.73;;;1.00;;
3095;SDS011;1558;42.700;23.360;2023-06-14T00:12:38;1.13;;;0.83;;
3095;SDS011;1558;42.700;23.360;2023-06-14T00:15:07;1.30;;;1.20;;
3095;SDS011;1558;42.700;23.360;2023-06-14T00:17:36;1.13;;;0.93;;
3095;SDS011;1558;42.700;23.360;2023-06-14T00:20:06;1.23;;;1.13;;
3095;SDS011;1558;42.700;23.360;2023-06-14T00:22:35;1.20;;;1.10;;
3095;SDS011;1558;42.700;23.360;2023-06-14T00:25:05;1.90;;;1.03;;
3095;SDS011;1558;42.700;23.360;2023-06-14T00:27:53;1.53;;;1.20;;
3095;SDS011;1558;42.700;23.360;2023-06-14T00:30:22;1.20;;;1.10;;
3095;SDS011;1558;42.700;23.360;2023-06-14T00:32:50;0.90;;;0.90;;
3095;SDS011;1558;42.700;23.360;2023-06-14T00:35:19;1.40;;;1.30;;
3095;SDS011;1558;42.700;23.360;2023-06-14T00:37:48;1.07;;;0.97;;
3095;SDS011;1558;42.700;23.360;2023-06-14T00:40:16;2.03;;;1.10;;
3095;SDS011;1558;42.700;23.360;2023-06-14T00:42:44;1.00;;;0.90;;
3095;SDS011;1558;42.700;23.360;2023-06-14T00:45:12;1.17;;;1.07;;
3095;SDS011;1558;42.700;23.360;2023-06-14T00:47:41;1.53;;;1.20;;
3095;SDS011;1558;42.700;23.360;2023-06-14T00:50:10;1.13;;;1.03;;
3095;SDS011;1558;42.700;23.360;2023-06-14T00:52:39;3.47;;;1.33;;
3095;SDS011;1558;42.700;23.360;2023-06-14T00:55:09;1.53;;;1.43;;
3095;SDS011;1558;42.700;23.360;2023-06-14T00:57:37;0.97;;;0.90;;
3095;SDS011;1558;42.700;23.360;2023-06-14T01:00:07;2.20;;;1.10;;
3095;SDS011;1558;42.700;23.360;2023-06-14T01:02:36;1.07;;;1.03;;
3095;SDS011;1558;42.700;23.360;2023-06-14T01:05:05;2.00;;;1.03;;
3095;SDS011;1558;42.700;23.360;2023-06-14T01:07:40;1.17;;;1.00;;
3095;SDS011;1558;42.700;23.360;2023-06-14T01:10:20;1.10;;;1.00;;
3095;SDS011;1558;42.700;23.360;2023-06-14T01:13:01;1.43;;;0.80;;
3095;SDS011;1558;42.700;23.360;2023-06-14T01:15:35;1.30;;;1.20;;
3095;SDS011;1558;42.700;23.360;2023-06-14T01:18:05;1.20;;;1.10;;
3095;SDS011;1558;42.700;23.360;2023-06-14T01:20:33;1.13;;;1.03;;
3095;SDS011;1558;42.700;23.360;2023-06-14T01:23:06;1.07;;;0.97;;
3095;SDS011;1558;42.700;23.360;2023-06-14T01:25:34;1.00;;;0.90;;
3095;SDS011;1558;42.700;23.360;2023-06-14T01:28:05;0.97;;;0.97;;
3095;SDS011;1558;42.700;23.360;2023-06-14T01:30:37;1.23;;;1.03;;
3095;SDS011;1558;42.700;23.360;2023-06-14T01:33:11;1.47;;;0.97;;
3095;SDS011;1558;42.700;23.360;2023-06-14T01:35:41;1.40;;;1.30;;
3095;SDS011;1558;42.700;23.360;2023-06-14T01:38:13;1.40;;;1.30;;
3095;SDS011;1558;42.700;23.360;2023-06-14T01:40:42;1.00;;;0.87;;
3095;SDS011;1558;42.700;23.360;2023-06-14T01:43:11;1.50;;;1.17;;
3095;SDS011;1558;42.700;23.360;2023-06-14T01:45:41;1.00;;;0.80;;
3095;SDS011;1558;42.700;23.360;2023-06-14T01:48:10;1.30;;;1.20;;
3095;SDS011;1558;42.700;23.360;2023-06-14T01:50:40;1.50;;;1.40;;
3095;SDS011;1558;42.700;23.360;2023-06-14T01:53:09;1.13;;;1.03;;
3095;SDS011;1558;42.700;23.360;2023-06-14T01:55:39;0.97;;;0.97;;
3095;SDS011;1558;42.700;23.360;2023-06-14T01:58:10;1.47;;;1.20;;
3095;SDS011;1558;42.700;23.360;2023-06-14T02:00:38;1.20;;;1.03;;
3095;SDS011;1558;42.700;23.360;2023-06-14T02:03:06;1.40;;;1.30;;
3095;SDS011;1558;42.700;23.360;2023-06-14T02:05:35;1.20;;;1.10;;
3095;SDS011;1558;42.700;23.360;2023-06-14T02:08:05;1.17;;;1.07;;
3095;SDS011;1558;42.700;23.360;2023-06-14T02:10:33;1.50;;;1.33;;
3095;SDS011;1558;42.700;23.360;2023-06-14T02:13:03;1.17;;;1.07;;
3095;SDS011;1558;42.700;23.360;2023-06-14T02:15:31;1.37;;;1.03;;
3095;SDS011;1558;42.700;23.360;2023-06-14T02:18:02;1.50;;;1.40;;
3095;SDS011;1558;42.700;23.360;2023-06-14T02:20:31;1.20;;;1.10;;
3095;SDS011;1558;42.700;23.360;2023-06-14T02:22:59;0.93;;;0.93;;
3095;SDS011;1558;42.700;23.360;2023-06-14T02:25:27;1.30;;;1.20;;
3095;SDS011;1558;42.700;23.360;2023-06-14T02:27:55;1.33;;;1.23;;
3095;SDS011;1558;42.700;23.360;2023-06-14T02:30:25;1.40;;;1.30;;
3095;SDS011;1558;42.700;23.360;2023-06-14T02:32:53;1.33;;;1.23;;
3095;SDS011;1558;42.700;23.360;2023-06-14T02:35:21;1.20;;;1.10;;
3095;SDS011;1558;42.700;23.360;2023-06-14T02:37:52;1.13;;;1.07;;
3095;SDS011;1558;42.700;23.360;2023-06-14T02:40:21;1.40;;;1.30;;
3095;SDS011;1558;42.700;23.360;2023-06-14T02:42:50;2.57;;;1.50;;
3095;SDS011;1558;42.700;23.360;2023-06-14T02:45:18;1.23;;;1.07;;
3095;SDS011;1558;42.700;23.360;2023-06-14T02:47:48;1.47;;;1.10;;
3095;SDS011;1558;42.700;23.360;2023-06-14T02:50:18;1.90;;;1.80;;
3095;SDS011;1558;42.700;23.360;2023-06-14T02:52:48;1.37;;;1.27;;
3095;SDS011;1558;42.700;23.360;2023-06-14T02:55:16;1.40;;;1.30;;
3095;SDS011;1558;42.700;23.360;2023-06-14T02:57:44;5.23;;;1.07;;
3095;SDS011;1558;42.700;23.360;2023-06-14T03:00:14;1.30;;;1.20;;
3095;SDS011;1558;42.700;23.360;2023-06-14T03:02:43;1.30;;;1.20;;
3095;SDS011;1558;42.700;23.360;2023-06-14T03:05:13;1.30;;;1.20;;
3095;SDS011;1558;42.700;23.360;2023-06-14T03:07:42;1.30;;;1.20;;
3095;SDS011;1558;42.700;23.360;2023-06-14T03:10:11;2.13;;;1.53;;
3095;SDS011;1558;42.700;23.360;2023-06-14T03:12:40;3.20;;;1.27;;
3095;SDS011;1558;42.700;23.360;2023-06-14T03:15:09;1.33;;;1.23;;
3095;SDS011;1558;42.700;23.360;2023-06-14T03:17:39;1.73;;;1.60;;
3095;SDS011;1558;42.700;23.360;2023-06-14T03:20:13;0.90;;;0.90;;
3095;SDS011;1558;42.700;23.360;2023-06-14T03:22:42;1.90;;;1.33;;
3095;SDS011;1558;42.700;23.360;2023-06-14T03:25:12;1.10;;;1.00;;
3095;SDS011;1558;42.700;23.360;2023-06-14T03:27:41;1.20;;;1.10;;
3095;SDS011;1558;42.700;23.360;2023-06-14T03:30:09;1.03;;;0.93;;
3095;SDS011;1558;42.700;23.360;2023-06-14T03:32:38;1.30;;;1.20;;
3095;SDS011;1558;42.700;23.360;2023-06-14T03:35:07;1.47;;;1.20;;
3095;SDS011;1558;42.700;23.360;2023-06-14T03:37:37;1.30;;;1.00;;
3095;SDS011;1558;42.700;23.360;2023-06-14T03:40:06;1.80;;;1.17;;
3095;SDS011;1558;42.700;23.360;2023-06-14T03:42:35;1.13;;;1.03;;
3095;SDS011;1558;42.700;23.360;2023-06-14T03:45:03;1.70;;;1.30;;
3095;SDS011;1558;42.700;23.360;2023-06-14T03:47:33;1.23;;;1.13;;
3095;SDS011;1558;42.700;23.360;2023-06-14T03:50:03;1.27;;;1.20;;
3095;SDS011;1558;42.700;23.360;2023-06-14T03:52:32;1.27;;;1.10;;
3095;SDS011;1558;42.700;23.360;2023-06-14T03:55:02;1.33;;;1.10;;
3095;SDS011;1558;42.700;23.360;2023-06-14T03:57:33;1.20;;;1.10;;
3095;SDS011;1558;42.700;23.360;2023-06-14T04:00:02;1.53;;;1.40;;
3095;SDS011;1558;42.700;23.360;2023-06-14T04:02:32;1.47;;;1.33;;
3095;SDS011;1558;42.700;23.360;2023-06-14T04:05:00;1.53;;;1.43;;
3095;SDS011;1558;42.700;23.360;2023-06-14T04:07:30;1.87;;;1.37;;
3095;SDS011;1558;42.700;23.360;2023-06-14T04:09:58;1.57;;;1.47;;
3095;SDS011;1558;42.700;23.360;2023-06-14T04:12:27;0.87;;;0.87;;
3095;SDS011;1558;42.700;23.360;2023-06-14T04:14:55;2.73;;;1.60;;
3095;SDS011;1558;42.700;23.360;2023-06-14T04:17:40;2.27;;;1.90;;
3095;SDS011;1558;42.700;23.360;2023-06-14T04:20:09;1.63;;;1.53;;
3095;SDS011;1558;42.700;23.360;2023-06-14T04:22:56;2.50;;;1.37;;
3095;SDS011;1558;42.700;23.360;2023-06-14T04:25:24;2.07;;;1.80;;
3095;SDS011;1558;42.700;23.360;2023-06-14T04:27:56;1.50;;;1.40;;
3095;SDS011;1558;42.700;23.360;2023-06-14T04:30:25;2.13;;;1.47;;
3095;SDS011;1558;42.700;23.360;2023-06-14T04:32:57;2.17;;;1.83;;
3095;SDS011;1558;42.700;23.360;2023-06-14T04:35:26;1.63;;;1.53;;
3095;SDS011;1558;42.700;23.360;2023-06-14T04:37:55;1.53;;;1.43;;
3095;SDS011;1558;42.700;23.360;2023-06-14T04:40:23;1.70;;;1.60;;
3095;SDS011;1558;42.700;23.360;2023-06-14T04:42:51;1.53;;;1.43;;
3095;SDS011;1558;42.700;23.360;2023-06-14T04:45:22;1.50;;;1.27;;
3095;SDS011;1558;42.700;23.360;2023-06-14T04:47:50;3.57;;;1.80;;
3095;SDS011;1558;42.700;23.360;2023-06-14T04:50:22;1.57;;;1.47;;
3095;SDS011;1558;42.700;23.360;2023-06-14T04:52:50;1.93;;;1.40;;
3095;SDS011;1558;42.700;23.360;2023-06-14T04:55:21;1.60;;;1.50;;
3095;SDS011;1558;42.700;23.360;2023-06-14T04:57:49;1.75;;;1.65;;
3095;SDS011;1558;42.700;23.360;2023-06-14T05:00:19;3.42;;;2.10;;
3095;SDS011;1558;42.700;23.360;2023-06-14T05:02:49;1.85;;;1.40;;
3095;SDS011;1558;42.700;23.360;2023-06-14T05:05:20;1.48;;;1.38;;
3095;SDS011;1558;42.700;23.360;2023-06-14T05:07:48;1.67;;;1.58;;
3095;SDS011;1558;42.700;23.360;2023-06-14T05:10:16;1.88;;;1.73;;
3095;SDS011;1558;42.700;23.360;2023-06-14T05:12:44;1.48;;;1.27;;
3095;SDS011;1558;42.700;23.360;2023-06-14T05:15:14;2.75;;;2.08;;
3095;SDS011;1558;42.700;23.360;2023-06-14T05:17:45;2.20;;;1.88;;
3095;SDS011;1558;42.700;23.360;2023-06-14T05:20:14;5.47;;;1.65;;
3095;SDS011;1558;42.700;23.360;2023-06-14T05:22:42;1.77;;;1.67;;
3095;SDS011;1558;42.700;23.360;2023-06-14T05:25:10;2.35;;;1.77;;
3095;SDS011;1558;42.700;23.360;2023-06-14T05:27:39;1.65;;;1.52;;
3095;SDS011;1558;42.700;23.360;2023-06-14T05:30:08;3.85;;;2.00;;
3095;SDS011;1558;42.700;23.360;2023-06-14T05:32:37;2.58;;;2.10;;
3095;SDS011;1558;42.700;23.360;2023-06-14T05:35:08;2.17;;;1.70;;
3095;SDS011;1558;42.700;23.360;2023-06-14T05:37:36;2.08;;;1.55;;
3095;SDS011;1558;42.700;23.360;2023-06-14T05:40:05;2.38;;;1.98;;
3095;SDS011;1558;42.700;23.360;2023-06-14T05:42:35;2.35;;;2.15;;
3095;SDS011;1558;42.700;23.360;2023-06-14T05:45:03;2.05;;;1.83;;
3095;SDS011;1558;42.700;23.360;2023-06-14T05:47:33;2.38;;;2.17;;
3095;SDS011;1558;42.700;23.360;2023-06-14T05:50:03;3.13;;;2.80;;
3095;SDS011;1558;42.700;23.360;2023-06-14T05:52:35;3.45;;;2.30;;
3095;SDS011;1558;42.700;23.360;2023-06-14T05:55:04;1.90;;;1.73;;
3095;SDS011;1558;42.700;23.360;2023-06-14T05:57:33;2.38;;;2.17;;
3095;SDS011;1558;42.700;23.360;2023-06-14T06:00:02;2.50;;;1.77;;
3095;SDS011;1558;42.700;23.360;2023-06-14T06:02:39;2.28;;;1.75;;
3095;SDS011;1558;42.700;23.360;2023-06-14T06:05:09;1.48;;;1.35;;
3095;SDS011;1558;42.700;23.360;2023-06-14T06:07:39;2.67;;;2.47;;
3095;SDS011;1558;42.700;23.360;2023-06-14T06:10:08;4.20;;;1.88;;
3095;SDS011;1558;42.700;23.360;2023-06-14T06:12:37;2.35;;;1.77;;
3095;SDS011;1558;42.700;23.360;2023-06-14T06:15:05;3.35;;;2.47;;
3095;SDS011;1558;42.700;23.360;2023-06-14T06:17:34;2.58;;;1.88;;
3095;SDS011;1558;42.700;23.360;2023-06-14T06:20:21;2.08;;;1.92;;
3095;SDS011;1558;42.700;23.360;2023-06-14T06:22:58;3.15;;;1.90;;
3095;SDS011;1558;42.700;23.360;2023-06-14T06:25:26;3.10;;;2.28;;
3095;SDS011;1558;42.700;23.360;2023-06-14T06:27:58;2.20;;;1.55;;
3095;SDS011;1558;42.700;23.360;2023-06-14T06:30:26;2.22;;;2.03;;
3095;SDS011;1558;42.700;23.360;2023-06-14T06:32:54;19.88;;;16.63;;
3095;SDS011;1558;42.700;23.360;2023-06-14T06:35:23;18.15;;;15.45;;
3095;SDS011;1558;42.700;23.360;2023-06-14T06:37:51;17.73;;;15.98;;
3095;SDS011;1558;42.700;23.360;2023-06-14T06:40:21;17.48;;;15.82;;
3095;SDS011;1558;42.700;23.360;2023-06-14T06:42:49;19.83;;;17.58;;
3095;SDS011;1558;42.700;23.360;2023-06-14T06:45:17;21.55;;;17.08;;
3095;SDS011;1558;42.700;23.360;2023-06-14T06:47:45;18.92;;;17.00;;
3095;SDS011;1558;42.700;23.360;2023-06-14T06:50:14;21.70;;;19.48;;
3095;SDS011;1558;42.700;23.360;2023-06-14T06:52:43;20.65;;;18.45;;
3095;SDS011;1558;42.700;23.360;2023-06-14T06:55:11;22.65;;;20.27;;
3095;SDS011;1558;42.700;23.360;2023-06-14T06:57:42;21.23;;;18.77;;
3095;SDS011;1558;42.700;23.360;2023-06-14T07:00:10;23.85;;;21.20;;
3095;SDS011;1558;42.700;23.360;2023-06-14T07:02:40;23.40;;;19.05;;
3095;SDS011;1558;42.700;23.360;2023-06-14T07:05:08;20.52;;;18.45;;
3095;SDS011;1558;42.700;23.360;2023-06-14T07:07:36;20.13;;;18.13;;
3095;SDS011;1558;42.700;23.360;2023-06-14T07:10:05;21.77;;;17.92;;
3095;SDS011;1558;42.700;23.360;2023-06-14T07:12:34;19.83;;;17.65;;
3095;SDS011;1558;42.700;23.360;2023-06-14T07:15:08;20.23;;;17.13;;
3095;SDS011;1558;42.700;23.360;2023-06-14T07:17:37;19.88;;;17.85;;
3095;SDS011;1558;42.700;23.360;2023-06-14T07:20:07;20.83;;;18.27;;
3095;SDS011;1558;42.700;23.360;2023-06-14T07:22:43;20.40;;;17.50;;
3095;SDS011;1558;42.700;23.360;2023-06-14T07:25:12;18.80;;;16.80;;
3095;SDS011;1558;42.700;23.360;2023-06-14T07:27:43;17.63;;;16.02;;
3095;SDS011;1558;42.700;23.360;2023-06-14T07:30:14;19.27;;;17.10;;
3095;SDS011;1558;42.700;23.360;2023-06-14T07:32:42;18.13;;;16.40;;
3095;SDS011;1558;42.700;23.360;2023-06-14T07:35:10;17.23;;;15.68;;
3095;SDS011;1558;42.700;23.360;2023-06-14T07:37:39;17.02;;;15.43;;
3095;SDS011;1558;42.700;23.360;2023-06-14T07:40:08;19.25;;;17.40;;
3095;SDS011;1558;42.700;23.360;2023-06-14T07:42:37;17.52;;;15.77;;
3095;SDS011;1558;42.700;23.360;2023-06-14T07:45:05;17.02;;;15.32;;
3095;SDS011;1558;42.700;23.360;2023-06-14T07:47:35;16.52;;;14.77;;
3095;SDS011;1558;42.700;23.360;2023-06-14T07:50:04;16.77;;;15.18;;
3095;SDS011;1558;42.700;23.360;2023-06-14T07:52:33;15.38;;;14.07;;
3095;SDS011;1558;42.700;23.360;2023-06-14T07:55:01;19.42;;;14.40;;
3095;SDS011;1558;42.700;23.360;2023-06-14T07:57:29;43.47;;;18.13;;
3095;SDS011;1558;42.700;23.360;2023-06-14T07:59:59;14.32;;;13.02;;
3095;SDS011;1558;42.700;23.360;2023-06-14T08:02:27;14.30;;;12.93;;
3095;SDS011;1558;42.700;23.360;2023-06-14T08:04:57;14.38;;;13.07;;
3095;SDS011;1558;42.700;23.360;2023-06-14T08:07:25;13.32;;;12.27;;
3095;SDS011;1558;42.700;23.360;2023-06-14T08:09:53;21.42;;;14.13;;
3095;SDS011;1558;42.700;23.360;2023-06-14T08:12:21;17.70;;;12.23;;
3095;SDS011;1558;42.700;23.360;2023-06-14T08:14:50;19.95;;;13.35;;
3095;SDS011;1558;42.700;23.360;2023-06-14T08:17:38;14.25;;;11.02;;
3095;SDS011;1558;42.700;23.360;2023-06-14T08:20:08;11.90;;;10.90;;
3095;SDS011;1558;42.700;23.360;2023-06-14T08:22:37;23.42;;;11.93;;
3095;SDS011;1558;42.700;23.360;2023-06-14T08:25:08;17.15;;;14.80;;
3095;SDS011;1558;42.700;23.360;2023-06-14T08:27:37;17.85;;;12.82;;
3095;SDS011;1558;42.700;23.360;2023-06-14T08:32:53;11.27;;;10.38;;
3095;SDS011;1558;42.700;23.360;2023-06-14T08:35:42;13.65;;;12.23;;
3095;SDS011;1558;42.700;23.360;2023-06-14T08:38:10;12.30;;;11.20;;
3095;SDS011;1558;42.700;23.360;2023-06-14T08:40:40;11.15;;;10.13;;
3095;SDS011;1558;42.700;23.360;2023-06-14T08:43:13;11.10;;;10.20;;
3095;SDS011;1558;42.700;23.360;2023-06-14T08:45:46;12.60;;;11.25;;
3095;SDS011;1558;42.700;23.360;2023-06-14T08:48:22;12.90;;;11.70;;
3095;SDS011;1558;42.700;23.360;2023-06-14T08:50:56;12.88;;;11.32;;
3095;SDS011;1558;42.700;23.360;2023-06-14T08:53:29;11.77;;;10.60;;
3095;SDS011;1558;42.700;23.360;2023-06-14T08:56:04;11.48;;;10.57;;
3095;SDS011;1558;42.700;23.360;2023-06-14T08:58:34;12.25;;;11.15;;
3095;SDS011;1558;42.700;23.360;2023-06-14T09:01:02;13.35;;;12.07;;
3095;SDS011;1558;42.700;23.360;2023-06-14T09:03:31;13.82;;;10.80;;
3095;SDS011;1558;42.700;23.360;2023-06-14T09:06:01;16.08;;;12.55;;
3095;SDS011;1558;42.700;23.360;2023-06-14T09:08:32;12.05;;;10.85;;
3095;SDS011;1558;42.700;23.360;2023-06-14T09:11:01;14.98;;;13.55;;
3095;SDS011;1558;42.700;23.360;2023-06-14T09:13:29;12.48;;;11.35;;
3095;SDS011;1558;42.700;23.360;2023-06-14T09:15:57;13.45;;;12.35;;
3095;SDS011;1558;42.700;23.360;2023-06-14T09:18:33;13.05;;;11.82;;
3095;SDS011;1558;42.700;23.360;2023-06-14T09:21:04;12.75;;;11.63;;
3095;SDS011;1558;42.700;23.360;2023-06-14T09:23:36;11.48;;;10.38;;
3095;SDS011;1558;42.700;23.360;2023-06-14T09:26:06;12.95;;;11.65;;
3095;SDS011;1558;42.700;23.360;2023-06-14T09:28:36;12.95;;;11.27;;
3095;SDS011;1558;42.700;23.360;2023-06-14T09:31:12;11.70;;;10.70;;
3095;SDS011;1558;42.700;23.360;2023-06-14T09:33:41;13.27;;;11.90;;
3095;SDS011;1558;42.700;23.360;2023-06-14T09:36:16;10.93;;;9.73;;
3095;SDS011;1558;42.700;23.360;2023-06-14T09:38:51;12.23;;;11.13;;
3095;SDS011;1558;42.700;23.360;2023-06-14T09:41:20;12.38;;;11.13;;
3095;SDS011;1558;42.700;23.360;2023-06-14T09:43:48;11.75;;;10.65;;
3095;SDS011;1558;42.700;23.360;2023-06-14T09:46:17;11.00;;;10.10;;
3095;SDS011;1558;42.700;23.360;2023-06-14T09:48:46;10.88;;;9.98;;
3095;SDS011;1558;42.700;23.360;2023-06-14T09:51:15;10.48;;;9.68;;
3095;SDS011;1558;42.700;23.360;2023-06-14T09:53:47;11.93;;;10.82;;
3095;SDS011;1558;42.700;23.360;2023-06-14T09:56:17;11.88;;;10.77;;
3095;SDS011;1558;42.700;23.360;2023-06-14T09:58:54;10.48;;;9.68;;
3095;SDS011;1558;42.700;23.360;2023-06-14T10:01:33;11.05;;;9.95;;
3095;SDS011;1558;42.700;23.360;2023-06-14T10:04:03;10.88;;;10.10;;
3095;SDS011;1558;42.700;23.360;2023-06-14T10:06:38;11.70;;;10.68;;
3095;SDS011;1558;42.700;23.360;2023-06-14T10:09:08;11.30;;;10.18;;
3095;SDS011;1558;42.700;23.360;2023-06-14T10:11:37;11.70;;;10.70;;
3095;SDS011;1558;42.700;23.360;2023-06-14T10:14:10;11.35;;;10.27;;
3095;SDS011;1558;42.700;23.360;2023-06-14T10:16:42;11.13;;;9.95;;
3095;SDS011;1558;42.700;23.360;2023-06-14T10:19:18;10.90;;;9.98;;
3095;SDS011;1558;42.700;23.360;2023-06-14T10:21:54;10.77;;;9.77;;
3095;SDS011;1558;42.700;23.360;2023-06-14T10:24:27;11.15;;;9.95;;
3095;SDS011;1558;42.700;23.360;2023-06-14T10:26:58;11.05;;;10.25;;
3095;SDS011;1558;42.700;23.360;2023-06-14T10:29:27;11.45;;;10.35;;
3095;SDS011;1558;42.700;23.360;2023-06-14T10:31:59;13.52;;;10.65;;
3095;SDS011;1558;42.700;23.360;2023-06-14T10:34:30;11.52;;;10.52;;
3095;SDS011;1558;42.700;23.360;2023-06-14T10:37:04;12.55;;;11.23;;
3095;SDS011;1558;42.700;23.360;2023-06-14T10:39:37;12.90;;;11.27;;
3095;SDS011;1558;42.700;23.360;2023-06-14T10:42:07;11.75;;;10.85;;
3095;SDS011;1558;42.700;23.360;2023-06-14T10:44:40;11.32;;;10.43;;
3095;SDS011;1558;42.700;23.360;2023-06-14T10:47:11;11.13;;;10.32;;
3095;SDS011;1558;42.700;23.360;2023-06-14T10:49:50;12.05;;;10.85;;
3095;SDS011;1558;42.700;23.360;2023-06-14T10:52:25;11.10;;;10.20;;
3095;SDS011;1558;42.700;23.360;2023-06-14T10:54:56;13.90;;;10.35;;
3095;SDS011;1558;42.700;23.360;2023-06-14T10:57:27;15.05;;;13.50;;
3095;SDS011;1558;42.700;23.360;2023-06-14T11:00:10;11.75;;;10.63;;
3095;SDS011;1558;42.700;23.360;2023-06-14T11:05:51;11.07;;;10.18;;
3095;SDS011;1558;42.700;23.360;2023-06-14T11:11:22;9.88;;;8.98;;
3095;SDS011;1558;42.700;23.360;2023-06-14T11:13:52;10.43;;;9.63;;
3095;SDS011;1558;42.700;23.360;2023-06-14T11:16:20;10.40;;;9.50;;
3095;SDS011;1558;42.700;23.360;2023-06-14T11:18:54;10.60;;;9.60;;
3095;SDS011;1558;42.700;23.360;2023-06-14T11:21:23;9.60;;;8.90;;
3095;SDS011;1558;42.700;23.360;2023-06-14T11:23:56;10.82;;;9.93;;
3095;SDS011;1558;42.700;23.360;2023-06-14T11:26:26;11.43;;;10.38;;
3095;SDS011;1558;42.700;23.360;2023-06-14T11:28:56;10.38;;;9.57;;
3095;SDS011;1558;42.700;23.360;2023-06-14T11:31:25;10.05;;;9.15;;
3095;SDS011;1558;42.700;23.360;2023-06-14T11:33:55;9.55;;;8.80;;
3095;SDS011;1558;42.700;23.360;2023-06-14T11:36:25;10.52;;;9.68;;
3095;SDS011;1558;42.700;23.360;2023-06-14T11:39:00;10.18;;;9.38;;
3095;SDS011;1558;42.700;23.360;2023-06-14T11:41:34;9.88;;;9.07;;
3095;SDS011;1558;42.700;23.360;2023-06-14T11:44:04;9.80;;;8.85;;
3095;SDS011;1558;42.700;23.360;2023-06-14T11:46:34;9.35;;;8.55;;
3095;SDS011;1558;42.700;23.360;2023-06-14T11:49:02;9.43;;;8.60;;
3095;SDS011;1558;42.700;23.360;2023-06-14T11:51:34;9.88;;;9.05;;
3095;SDS011;1558;42.700;23.360;2023-06-14T11:54:03;8.98;;;8.38;;
3095;SDS011;1558;42.700;23.360;2023-06-14T11:56:34;8.80;;;8.15;;
3095;SDS011;1558;42.700;23.360;2023-06-14T11:59:03;9.43;;;8.68;;
3095;SDS011;1558;42.700;23.360;2023-06-14T12:01:35;10.48;;;9.65;;
3095;SDS011;1558;42.700;23.360;2023-06-14T12:04:05;9.07;;;8.32;;
3095;SDS011;1558;42.700;23.360;2023-06-14T12:06:33;9.52;;;8.60;;
3095;SDS011;1558;42.700;23.360;2023-06-14T12:09:03;8.45;;;7.78;;
3095;SDS011;1558;42.700;23.360;2023-06-14T12:11:34;8.65;;;7.95;;
3095;SDS011;1558;42.700;23.360;2023-06-14T12:14:03;7.68;;;7.18;;
3095;SDS011;1558;42.700;23.360;2023-06-14T12:16:32;9.68;;;8.80;;
3095;SDS011;1558;42.700;23.360;2023-06-14T12:19:08;8.15;;;7.55;;
3095;SDS011;1558;42.700;23.360;2023-06-14T12:21:38;8.45;;;7.85;;
3095;SDS011;1558;42.700;23.360;2023-06-14T12:24:07;8.40;;;7.70;;
3095;SDS011;1558;42.700;23.360;2023-06-14T12:26:41;8.40;;;7.70;;
3095;SDS011;1558;42.700;23.360;2023-06-14T12:29:09;8.05;;;7.45;;
3095;SDS011;1558;42.700;23.360;2023-06-14T12:31:39;7.88;;;7.13;;
3095;SDS011;1558;42.700;23.360;2023-06-14T12:34:08;7.80;;;7.20;;
3095;SDS011;1558;42.700;23.360;2023-06-14T12:36:37;7.28;;;6.70;;
3095;SDS011;1558;42.700;23.360;2023-06-14T12:39:11;8.93;;;8.25;;
3095;SDS011;1558;42.700;23.360;2023-06-14T12:41:41;8.30;;;7.57;;
3095;SDS011;1558;42.700;23.360;2023-06-14T12:44:10;8.80;;;8.05;;
3095;SDS011;1558;42.700;23.360;2023-06-14T12:46:38;7.20;;;6.60;;
3095;SDS011;1558;42.700;23.360;2023-06-14T12:49:08;7.63;;;7.03;;
3095;SDS011;1558;42.700;23.360;2023-06-14T12:51:37;7.75;;;6.75;;
3095;SDS011;1558;42.700;23.360;2023-06-14T12:54:07;7.32;;;6.63;;
3095;SDS011;1558;42.700;23.360;2023-06-14T12:56:35;7.18;;;6.57;;
3095;SDS011;1558;42.700;23.360;2023-06-14T12:59:04;7.95;;;7.15;;
3095;SDS011;1558;42.700;23.360;2023-06-14T13:01:34;8.23;;;7.53;;
3095;SDS011;1558;42.700;23.360;2023-06-14T13:04:02;6.88;;;6.28;;
3095;SDS011;1558;42.700;23.360;2023-06-14T13:06:30;7.53;;;6.93;;
3095;SDS011;1558;42.700;23.360;2023-06-14T13:08:58;8.02;;;6.28;;
3095;SDS011;1558;42.700;23.360;2023-06-14T13:11:28;6.22;;;5.63;;
3095;SDS011;1558;42.700;23.360;2023-06-14T13:13:56;6.10;;;5.50;;
3095;SDS011;1558;42.700;23.360;2023-06-14T13:16:29;6.57;;;6.07;;
3095;SDS011;1558;42.700;23.360;2023-06-14T13:18:57;6.72;;;5.93;;
3095;SDS011;1558;42.700;23.360;2023-06-14T13:21:25;6.72;;;6.13;;
3095;SDS011;1558;42.700;23.360;2023-06-14T13:23:53;7.55;;;6.78;;
3095;SDS011;1558;42.700;23.360;2023-06-14T13:26:21;7.95;;;7.25;;
3095;SDS011;1558;42.700;23.360;2023-06-14T13:28:49;8.20;;;7.50;;
3095;SDS011;1558;42.700;23.360;2023-06-14T13:31:18;8.02;;;7.22;;
3095;SDS011;1558;42.700;23.360;2023-06-14T13:33:48;7.85;;;7.20;;
3095;SDS011;1558;42.700;23.360;2023-06-14T13:36:16;8.43;;;7.72;;
3095;SDS011;1558;42.700;23.360;2023-06-14T13:38:44;9.00;;;7.65;;
3095;SDS011;1558;42.700;23.360;2023-06-14T13:41:15;8.75;;;7.95;;
3095;SDS011;1558;42.700;23.360;2023-06-14T13:43:43;8.55;;;7.85;;
3095;SDS011;1558;42.700;23.360;2023-06-14T13:46:11;8.57;;;7.78;;
3095;SDS011;1558;42.700;23.360;2023-06-14T13:48:39;8.60;;;7.90;;
3095;SDS011;1558;42.700;23.360;2023-06-14T13:51:09;8.68;;;7.90;;
3095;SDS011;1558;42.700;23.360;2023-06-14T13:53:37;8.65;;;7.80;;
3095;SDS011;1558;42.700;23.360;2023-06-14T13:56:05;9.38;;;8.43;;
3095;SDS011;1558;42.700;23.360;2023-06-14T13:58:34;8.73;;;7.70;;
3095;SDS011;1558;42.700;23.360;2023-06-14T14:01:01;9.63;;;8.83;;
3095;SDS011;1558;42.700;23.360;2023-06-14T14:03:30;9.43;;;8.53;;
3095;SDS011;1558;42.700;23.360;2023-06-14T14:05:58;9.07;;;8.17;;
3095;SDS011;1558;42.700;23.360;2023-06-14T14:08:31;8.73;;;8.00;;
3095;SDS011;1558;42.700;23.360;2023-06-14T14:10:59;8.63;;;7.83;;
3095;SDS011;1558;42.700;23.360;2023-06-14T14:13:27;8.27;;;7.40;;
3095;SDS011;1558;42.700;23.360;2023-06-14T14:15:55;8.43;;;7.63;;
3095;SDS011;1558;42.700;23.360;2023-06-14T14:18:24;7.60;;;7.00;;
3095;SDS011;1558;42.700;23.360;2023-06-14T14:20:55;8.40;;;7.60;;
3095;SDS011;1558;42.700;23.360;2023-06-14T14:23:23;10.20;;;9.20;;
3095;SDS011;1558;42.700;23.360;2023-06-14T14:25:52;9.07;;;7.93;;
3095;SDS011;1558;42.700;23.360;2023-06-14T14:28:20;9.00;;;8.20;;
3095;SDS011;1558;42.700;23.360;2023-06-14T14:30:48;8.60;;;7.80;;
3095;SDS011;1558;42.700;23.360;2023-06-14T14:33:17;8.40;;;7.50;;
3095;SDS011;1558;42.700;23.360;2023-06-14T14:35:45;8.23;;;7.43;;
3095;SDS011;1558;42.700;23.360;2023-06-14T14:38:14;7.20;;;6.50;;
3095;SDS011;1558;42.700;23.360;2023-06-14T14:40:43;7.47;;;6.77;;
3095;SDS011;1558;42.700;23.360;2023-06-14T14:43:13;6.80;;;6.20;;
3095;SDS011;1558;42.700;23.360;2023-06-14T14:45:41;7.57;;;6.77;;
3095;SDS011;1558;42.700;23.360;2023-06-14T14:48:10;8.20;;;7.37;;
3095;SDS011;1558;42.700;23.360;2023-06-14T14:50:38;7.70;;;6.93;;
3095;SDS011;1558;42.700;23.360;2023-06-14T14:53:06;5.70;;;5.20;;
3095;SDS011;1558;42.700;23.360;2023-06-14T14:55:34;5.73;;;5.00;;
3095;SDS011;1558;42.700;23.360;2023-06-14T14:58:04;6.73;;;5.40;;
3095;SDS011;1558;42.700;23.360;2023-06-14T15:00:34;6.00;;;5.40;;
3095;SDS011;1558;42.700;23.360;2023-06-14T15:03:03;6.33;;;5.73;;
3095;SDS011;1558;42.700;23.360;2023-06-14T15:05:31;5.53;;;5.03;;
3095;SDS011;1558;42.700;23.360;2023-06-14T15:07:59;6.27;;;5.67;;
3095;SDS011;1558;42.700;23.360;2023-06-14T15:10:27;7.07;;;6.43;;
3095;SDS011;1558;42.700;23.360;2023-06-14T15:12:56;7.97;;;7.27;;
3095;SDS011;1558;42.700;23.360;2023-06-14T15:15:24;8.43;;;7.60;;
3095;SDS011;1558;42.700;23.360;2023-06-14T15:17:53;8.73;;;7.50;;